Time;durP1;ratioP1;P1;durP2;ratioP2;P2;SDS_P1;SDS_P2;PMS_P1;PMS_P2;Temp;Humidity;BMP_temperature;BMP_pressure;BME280_temperature;BME280_humidity;BME280_pressure;Samples;Min_cycle;Max_cycle;Signal;HPM_P1;HPM_P2
2021/10/20 00:00:26;;;;;;;;;;;;;;;21.79;53.79;100973.53;4949221;29;19949;-87
2021/10/20 00:02:52;;;;;;;;;;;;;;;21.87;53.34;100968.16;4948808;29;20372;-87
2021/10/20 00:05:18;;;;;;;;;;;;;;;22.31;51.43;100962.25;4949094;29;19922;-88
2021/10/20 00:07:45;;;;;;;;;;;;;;;21.72;53.80;100958.59;4966348;28;20336;-87
2021/10/20 00:10:10;;;;;;;;;;;;;;;21.42;54.33;100954.88;4966359;29;19924;-88
2021/10/20 00:12:36;;;;;;;;;;;;;;;21.32;54.88;100952.13;4949512;29;19922;-88
2021/10/20 00:15:04;;;;;;;;;;;;;;;21.89;52.33;100941.38;4948872;29;19995;-88
2021/10/20 00:17:30;;;;;;;;;;;;;;;21.69;53.53;100934.94;4949101;28;20317;-87
2021/10/20 00:19:59;;;;;;;;;;;;;;;22.00;52.05;100929.31;4948873;28;19926;-86
2021/10/20 00:22:24;;;;;;;;;;;;;;;21.94;52.34;100929.91;4965835;29;20017;-87
2021/10/20 00:24:49;;;;;;;;;;;;;;;22.11;51.82;100923.66;4949351;29;19923;-88
2021/10/20 00:27:14;;;;;;;;;;;;;;;22.49;50.82;100929.28;4949015;29;20376;-87
2021/10/20 00:29:40;;;;;;;;;;;;;;;21.51;53.52;100910.00;4965883;29;20333;-88
2021/10/20 00:32:05;;;;;;;;;;;;;;;22.06;51.63;100914.97;4948752;29;20443;-88
2021/10/20 00:34:30;;;;;;;;;;;;;;;21.69;52.61;100923.09;4949382;29;19926;-87
2021/10/20 00:36:55;;;;;;;;;;;;;;;21.75;52.58;100908.75;4966715;28;19918;-88
2021/10/20 00:39:21;;;;;;;;;;;;;;;21.49;53.26;100927.66;4949919;29;19914;-88
2021/10/20 00:41:46;;;;;;;;;;;;;;;21.30;53.78;100906.47;4949642;29;20025;-88
2021/10/20 00:44:11;;;;;;;;;;;;;;;21.74;52.36;100904.22;4949608;28;20004;-88
2021/10/20 00:46:36;;;;;;;;;;;;;;;21.57;52.63;100898.47;4966519;28;19919;-90
2021/10/20 00:49:02;;;;;;;;;;;;;;;21.79;52.23;100893.66;4947014;29;19919;-88
2021/10/20 00:51:27;;;;;;;;;;;;;;;21.55;52.51;100888.59;4946943;29;19914;-87
2021/10/20 00:53:59;;;;;;;;;;;;;;;21.80;51.81;100891.78;4946378;29;19977;-87
2021/10/20 00:56:25;;;;;;;;;;;;;;;22.18;51.20;100898.25;4945821;29;20400;-89
2021/10/20 00:58:50;;;;;;;;;;;;;;;21.74;52.00;100905.13;4945623;29;19919;-87
2021/10/20 01:01:16;;;;;;;;;;;;;;;21.85;51.62;100889.47;4945793;29;19918;-87
2021/10/20 01:03:42;;;;;;;;;;;;;;;21.56;52.43;100888.44;4962651;29;19915;-86
2021/10/20 01:06:07;;;;;;;;;;;;;;;21.86;51.93;100875.56;4962687;29;20403;-87
2021/10/20 01:08:32;;;;;;;;;;;;;;;21.49;52.62;100883.63;4945786;29;20110;-87
2021/10/20 01:10:58;;;;;;;;;;;;;;;21.57;52.04;100864.53;4945389;29;19918;-88
2021/10/20 01:13:24;;;;;;;;;;;;;;;21.77;51.42;100855.25;4945272;29;19926;-88
2021/10/20 01:15:49;;;;;;;;;;;;;;;21.87;51.17;100855.25;4962571;29;19973;-87
2021/10/20 01:18:14;;;;;;;;;;;;;;;22.17;50.44;100861.56;4945164;29;19918;-88
2021/10/20 01:20:41;;;;;;;;;;;;;;;21.64;52.04;100860.19;4945521;29;20009;-88
2021/10/20 01:23:06;;;;;;;;;;;;;;;21.48;51.59;100863.47;4944727;29;19925;-88
2021/10/20 01:25:32;;;;;;;;;;;;;;;21.98;50.64;100867.13;4945201;29;20000;-87
2021/10/20 01:27:57;;;;;;;;;;;;;;;21.46;51.79;100857.25;4962426;29;19934;-87
2021/10/20 01:30:22;;;;;;;;;;;;;;;21.39;52.18;100862.47;4945396;29;19922;-88
2021/10/20 01:32:48;;;;;;;;;;;;;;;21.51;51.73;100846.69;4961925;29;19922;-88
2021/10/20 01:35:13;;;;;;;;;;;;;;;21.85;51.33;100851.78;4962235;29;20017;-89
2021/10/20 01:37:38;;;;;;;;;;;;;;;21.42;51.82;100851.19;4944944;29;19919;-87
2021/10/20 01:40:04;;;;;;;;;;;;;;;21.69;50.86;100846.84;4962894;29;19915;-87
2021/10/20 01:42:29;;;;;;;;;;;;;;;22.11;49.87;100852.00;4945550;29;20015;-86
2021/10/20 01:44:55;;;;;;;;;;;;;;;21.85;50.51;100843.50;4944699;29;19919;-87
2021/10/20 01:47:20;;;;;;;;;;;;;;;21.98;49.89;100845.09;4944536;29;19922;-88
2021/10/20 01:49:46;;;;;;;;;;;;;;;21.56;51.03;100846.28;4961811;29;20181;-87
2021/10/20 01:52:11;;;;;;;;;;;;;;;21.57;51.28;100843.41;4961888;29;19919;-87
2021/10/20 01:54:36;;;;;;;;;;;;;;;21.35;51.29;100844.50;4961836;29;19922;-88
2021/10/20 01:57:02;;;;;;;;;;;;;;;21.75;50.52;100829.72;4943919;29;20021;-87
2021/10/20 01:59:27;;;;;;;;;;;;;;;22.67;48.10;100818.22;4943579;28;20025;-87
2021/10/20 02:01:52;;;;;;;;;;;;;;;21.72;49.82;100819.00;4943416;29;19918;-88
2021/10/20 02:04:18;;;;;;;;;;;;;;;21.79;50.01;100818.47;4944602;29;20292;-88
2021/10/20 02:06:43;;;;;;;;;;;;;;;21.80;50.16;100815.56;4943957;29;19985;-88
2021/10/20 02:09:09;;;;;;;;;;;;;;;21.93;49.08;100802.31;4961112;29;19954;-87
2021/10/20 02:11:34;;;;;;;;;;;;;;;21.34;51.28;100793.22;4944539;29;19914;-88
2021/10/20 02:14:01;;;;;;;;;;;;;;;21.86;49.96;100787.44;4944364;29;19930;-88
2021/10/20 02:16:26;;;;;;;;;;;;;;;21.78;49.70;100790.03;4944363;29;19954;-88
2021/10/20 02:18:54;;;;;;;;;;;;;;;21.69;50.61;100785.41;4944055;29;19918;-88
2021/10/20 02:21:19;;;;;;;;;;;;;;;21.52;50.28;100785.13;4943928;29;19981;-87
2021/10/20 02:23:44;;;;;;;;;;;;;;;21.28;51.05;100781.94;4943995;29;19922;-89
2021/10/20 02:26:09;;;;;;;;;;;;;;;21.82;50.07;100783.22;4960921;29;20372;-86
2021/10/20 02:28:34;;;;;;;;;;;;;;;21.69;50.45;100775.25;4960899;29;19924;-86
2021/10/20 02:31:00;;;;;;;;;;;;;;;21.53;50.45;100772.22;4943481;29;19994;-87
2021/10/20 02:33:25;;;;;;;;;;;;;;;21.15;51.48;100761.09;4945125;29;20403;-88
2021/10/20 02:35:50;;;;;;;;;;;;;;;21.44;50.88;100751.94;4943844;29;19918;-87
2021/10/20 02:38:16;;;;;;;;;;;;;;;21.55;50.13;100759.22;4960867;29;19949;-87
2021/10/20 02:40:41;;;;;;;;;;;;;;;21.79;49.90;100753.22;4960937;29;20356;-87
2021/10/20 02:43:06;;;;;;;;;;;;;;;21.52;50.57;100760.38;4961092;29;19918;-88
2021/10/20 02:45:31;;;;;;;;;;;;;;;21.17;50.95;100759.03;4943756;29;19926;-88
2021/10/20 02:47:56;;;;;;;;;;;;;;;21.45;50.19;100744.56;4961087;29;19922;-88
2021/10/20 02:50:22;;;;;;;;;;;;;;;20.96;52.03;100728.91;4961135;29;19941;-87
2021/10/20 02:52:48;;;;;;;;;;;;;;;21.42;51.26;100735.59;4943590;29;20368;-88
2021/10/20 02:55:13;;;;;;;;;;;;;;;21.40;50.75;100725.72;4961030;29;19923;-89
2021/10/20 02:57:38;;;;;;;;;;;;;;;21.29;51.03;100731.38;4943651;29;19922;-87
2021/10/20 03:00:04;;;;;;;;;;;;;;;20.85;51.79;100740.94;4943111;29;19919;-87
2021/10/20 03:02:29;;;;;;;;;;;;;;;21.58;50.19;100723.13;4943129;29;19965;-86
2021/10/20 03:04:54;;;;;;;;;;;;;;;21.20;50.88;100724.88;4943520;29;19919;-87
2021/10/20 03:07:20;;;;;;;;;;;;;;;21.64;50.16;100705.16;4943542;29;19929;-87
2021/10/20 03:09:45;;;;;;;;;;;;;;;21.79;49.36;100714.66;4943142;29;19918;-87
2021/10/20 03:12:10;;;;;;;;;;;;;;;21.98;49.05;100723.88;4960657;28;19918;-88
2021/10/20 03:14:35;;;;;;;;;;;;;;;21.74;49.57;100714.22;4943989;29;19978;-87
2021/10/20 03:17:01;;;;;;;;;;;;;;;21.09;50.71;100706.66;4944081;29;20327;-88
2021/10/20 03:19:26;;;;;;;;;;;;;;;20.88;51.43;100709.53;4961916;29;20427;-87
2021/10/20 03:21:51;;;;;;;;;;;;;;;21.12;50.83;100714.59;4944389;29;19977;-84
2021/10/20 03:24:16;;;;;;;;;;;;;;;21.67;49.03;100713.97;4944032;29;19922;-87
2021/10/20 03:26:41;;;;;;;;;;;;;;;21.71;49.02;100703.53;4961378;29;19929;-87
2021/10/20 03:29:07;;;;;;;;;;;;;;;21.59;49.13;100708.34;4961712;29;20433;-87
2021/10/20 03:31:32;;;;;;;;;;;;;;;21.80;48.57;100710.91;4944274;29;20056;-88
2021/10/20 03:33:57;;;;;;;;;;;;;;;21.68;48.92;100712.06;4961890;29;19927;-86
2021/10/20 03:36:23;;;;;;;;;;;;;;;21.77;48.59;100701.06;4961820;29;19922;-89
2021/10/20 03:38:48;;;;;;;;;;;;;;;21.70;49.27;100696.31;4944529;29;20018;-88
2021/10/20 03:41:13;;;;;;;;;;;;;;;21.29;49.58;100710.25;4961180;29;19915;-88
2021/10/20 03:43:39;;;;;;;;;;;;;;;21.84;48.85;100695.81;4943949;29;19942;-89
2021/10/20 03:46:04;;;;;;;;;;;;;;;21.83;48.95;100691.34;4943838;29;20257;-86
2021/10/20 03:48:29;;;;;;;;;;;;;;;21.34;49.95;100696.03;4961044;29;19964;-87
2021/10/20 03:50:55;;;;;;;;;;;;;;;21.42;49.69;100686.03;4944498;29;19919;-85
2021/10/20 03:53:20;;;;;;;;;;;;;;;21.77;49.20;100690.03;4943654;29;19914;-86
2021/10/20 03:55:45;;;;;;;;;;;;;;;21.48;50.05;100668.03;4960430;29;19922;-87
2021/10/20 03:58:11;;;;;;;;;;;;;;;21.36;50.31;100672.00;4943912;29;19926;-87
2021/10/20 04:00:36;;;;;;;;;;;;;;;21.60;49.88;100688.03;4943834;29;19922;-87
2021/10/20 04:03:01;;;;;;;;;;;;;;;21.15;51.18;100689.56;4943871;29;19919;-86
2021/10/20 04:05:26;;;;;;;;;;;;;;;21.31;50.85;100666.06;4943669;29;19918;-86
2021/10/20 04:07:52;;;;;;;;;;;;;;;22.02;49.18;100660.06;4943237;29;20291;-87
2021/10/20 04:10:20;;;;;;;;;;;;;;;21.50;50.69;100654.16;4943569;29;19922;-88
2021/10/20 04:12:46;;;;;;;;;;;;;;;21.76;50.10;100648.88;4943579;29;19925;-87
2021/10/20 04:15:13;;;;;;;;;;;;;;;21.47;50.52;100647.06;4943136;29;19923;-88
2021/10/20 04:17:39;;;;;;;;;;;;;;;22.12;49.28;100643.50;4943506;29;19922;-87
2021/10/20 04:20:05;;;;;;;;;;;;;;;21.17;51.51;100638.00;4943498;29;19926;-86
2021/10/20 04:22:30;;;;;;;;;;;;;;;21.64;50.20;100650.94;4943290;28;19946;-86
2021/10/20 04:24:56;;;;;;;;;;;;;;;22.06;49.13;100636.72;4946364;29;19945;-86
2021/10/20 04:27:21;;;;;;;;;;;;;;;21.79;49.72;100623.81;4964136;29;20281;-88
2021/10/20 04:29:46;;;;;;;;;;;;;;;21.51;50.54;100634.75;4963263;29;20375;-87
2021/10/20 04:32:11;;;;;;;;;;;;;;;22.05;48.86;100628.59;4963086;29;19918;-89
2021/10/20 04:34:36;;;;;;;;;;;;;;;22.34;48.21;100639.47;4947146;29;20021;-87
2021/10/20 04:37:02;;;;;;;;;;;;;;;22.19;48.48;100630.81;4963930;29;20061;-89
2021/10/20 04:39:27;;;;;;;;;;;;;;;21.90;50.88;100629.09;4946770;29;19989;-86
2021/10/20 04:41:52;;;;;;;;;;;;;;;21.50;51.36;100641.28;4947386;29;20041;-84
2021/10/20 04:44:17;;;;;;;;;;;;;;;22.29;49.48;100622.50;4964332;29;19923;-87
2021/10/20 04:46:43;;;;;;;;;;;;;;;20.52;54.85;100630.31;4947604;29;19918;-87
2021/10/20 04:49:08;;;;;;;;;;;;;;;21.32;53.14;100623.78;4947128;29;19973;-88
2021/10/20 04:51:33;;;;;;;;;;;;;;;21.00;53.96;100636.88;4946523;29;19919;-87
2021/10/20 04:53:58;;;;;;;;;;;;;;;21.56;54.23;100639.84;4946931;29;19926;-88
2021/10/20 04:56:24;;;;;;;;;;;;;;;21.55;54.41;100632.59;4964276;29;20006;-88
2021/10/20 04:58:49;;;;;;;;;;;;;;;20.29;58.26;100632.47;4946984;29;19918;-87
2021/10/20 05:01:14;;;;;;;;;;;;;;;21.18;56.39;100612.22;4963055;29;20017;-88
2021/10/20 05:03:39;;;;;;;;;;;;;;;21.62;54.80;100622.72;4963717;29;19997;-87
2021/10/20 05:06:05;;;;;;;;;;;;;;;21.10;55.96;100625.84;4963053;29;19919;-87
2021/10/20 05:08:30;;;;;;;;;;;;;;;22.11;52.33;100608.69;4945806;29;19918;-86
2021/10/20 05:10:57;;;;;;;;;;;;;;;20.86;55.56;100607.94;4963266;29;19919;-87
2021/10/20 05:13:23;;;;;;;;;;;;;;;21.85;53.12;100609.41;4962768;29;19950;-87
2021/10/20 05:15:48;;;;;;;;;;;;;;;22.61;51.05;100599.94;4962941;29;19926;-88
2021/10/20 05:18:13;;;;;;;;;;;;;;;22.02;51.70;100599.47;4945875;29;19918;-88
2021/10/20 05:20:38;;;;;;;;;;;;;;;21.55;52.79;100574.78;4945920;29;20265;-86
2021/10/20 05:23:04;;;;;;;;;;;;;;;21.34;54.20;100574.97;4945601;29;19937;-87
2021/10/20 05:25:29;;;;;;;;;;;;;;;21.39;55.10;100559.75;4945700;29;19930;-87
2021/10/20 05:27:54;;;;;;;;;;;;;;;22.00;53.01;100581.38;4946092;29;19915;-87
2021/10/20 05:30:20;;;;;;;;;;;;;;;21.90;53.51;100568.50;4962760;29;19918;-87
2021/10/20 05:32:53;;;;;;;;;;;;;;;21.97;52.88;100573.41;4964052;29;19919;-87
2021/10/20 05:35:18;;;;;;;;;;;;;;;22.71;51.02;100569.56;4946278;29;19958;-87
2021/10/20 05:37:47;;;;;;;;;;;;;;;21.46;54.21;100570.16;4946661;29;20057;-88
2021/10/20 05:40:13;;;;;;;;;;;;;;;21.76;53.04;100561.63;4945830;29;19915;-87
2021/10/20 05:42:38;;;;;;;;;;;;;;;20.83;55.88;100547.72;4945919;29;19993;-88
2021/10/20 05:45:03;;;;;;;;;;;;;;;21.94;53.13;100558.91;4945150;29;20006;-88
2021/10/20 05:47:29;;;;;;;;;;;;;;;21.89;53.44;100527.34;4962538;29;19919;-88
2021/10/20 05:49:54;;;;;;;;;;;;;;;21.99;53.73;100517.13;4962275;29;19926;-88
2021/10/20 05:52:19;;;;;;;;;;;;;;;21.19;55.17;100525.91;4945275;29;19961;-87
2021/10/20 05:54:45;;;;;;;;;;;;;;;21.50;55.07;100517.44;4944704;29;20010;-86
2021/10/20 05:57:10;;;;;;;;;;;;;;;22.24;53.61;100510.00;4944667;29;19933;-87
2021/10/20 05:59:35;;;;;;;;;;;;;;;21.61;55.40;100515.50;4961899;29;19924;-87
2021/10/20 06:02:00;;;;;;;;;;;;;;;21.25;55.81;100505.19;4944941;29;19950;-88
2021/10/20 06:04:26;;;;;;;;;;;;;;;21.57;56.16;100501.16;4944633;29;19918;-85
2021/10/20 06:06:51;;;;;;;;;;;;;;;21.61;55.58;100507.25;4960852;29;19965;-85
2021/10/20 06:09:16;;;;;;;;;;;;;;;21.05;57.00;100497.00;4943825;29;19927;-85
2021/10/20 06:11:41;;;;;;;;;;;;;;;21.29;55.90;100511.25;4943528;29;19923;-85
2021/10/20 06:14:07;;;;;;;;;;;;;;;21.86;54.37;100500.13;4960936;28;19973;-86
2021/10/20 06:16:35;;;;;;;;;;;;;;;21.70;54.36;100484.28;4944888;29;19919;-85
2021/10/20 06:19:00;;;;;;;;;;;;;;;21.88;53.66;100490.69;4975205;28;19976;-84
2021/10/20 06:21:26;;;;;;;;;;;;;;;21.28;54.67;100471.00;4963975;28;19957;-85
2021/10/20 06:23:51;;;;;;;;;;;;;;;21.80;53.34;100481.47;4964478;28;19974;-84
2021/10/20 06:26:16;;;;;;;;;;;;;;;21.69;53.78;100488.06;4986660;28;20008;-83
2021/10/20 06:28:42;;;;;;;;;;;;;;;21.19;54.95;100497.53;4969094;28;19922;-83
2021/10/20 06:31:07;;;;;;;;;;;;;;;21.42;54.88;100492.50;4969595;28;19929;-83
2021/10/20 06:33:32;;;;;;;;;;;;;;;21.78;53.58;100476.13;4969408;28;19918;-85
2021/10/20 06:35:59;;;;;;;;;;;;;;;21.40;55.58;100500.06;4987765;28;19957;-85
2021/10/20 06:38:24;;;;;;;;;;;;;;;;;;4973127;28;19952;-85
2021/10/20 06:40:49;;;;;;;;;;;;;;;20.54;59.30;100514.75;4968487;28;20016;-85
2021/10/20 06:43:15;;;;;;;;;;;;;;;20.42;60.76;100511.28;4963569;28;20410;-86
2021/10/20 06:45:44;;;;;;;;;;;;;;;20.81;60.38;100516.75;4963478;28;19918;-86
2021/10/20 06:48:10;;;;;;;;;;;;;;;20.92;60.73;100479.97;4963693;28;20053;-84
2021/10/20 06:50:44;;;;;;;;;;;;;;;20.41;61.91;100495.81;4960431;28;19929;-85
2021/10/20 06:53:09;;;;;;;;;;;;;;;20.89;61.23;100475.66;4963949;28;19918;-84
2021/10/20 06:55:35;;;;;;;;;;;;;;;20.43;62.20;100452.56;4962835;28;19922;-85
2021/10/20 06:58:00;;;;;;;;;;;;;;;20.59;62.43;100445.59;4962727;28;19925;-85
2021/10/20 07:00:25;;;;;;;;;;;;;;;21.07;61.08;100422.59;4962605;28;19914;-85
2021/10/20 07:02:50;;;;;;;;;;;;;;;20.70;62.10;100423.47;4961609;28;19925;-84
2021/10/20 07:05:16;;;;;;;;;;;;;;;20.31;62.78;100423.53;4961524;28;19924;-84
2021/10/20 07:07:41;;;;;;;;;;;;;;;20.08;64.49;100406.47;4961914;28;19914;-84
2021/10/20 07:10:07;;;;;;;;;;;;;;;19.75;64.89;100401.25;4961650;28;19919;-85
2021/10/20 07:12:40;;;;;;;;;;;;;;;20.28;64.25;100369.75;4978824;28;19914;-86
2021/10/20 07:15:05;;;;;;;;;;;;;;;20.27;63.78;100356.16;4979231;28;19922;-86
2021/10/20 07:17:31;;;;;;;;;;;;;;;19.92;64.84;100343.94;4979063;28;19918;-86
2021/10/20 07:19:56;;;;;;;;;;;;;;;20.14;64.67;100318.88;4978912;28;20005;-83
2021/10/20 07:22:21;;;;;;;;;;;;;;;20.54;62.93;100316.88;4961554;28;19918;-85
2021/10/20 07:24:46;;;;;;;;;;;;;;;19.95;64.32;100322.53;4961729;28;19992;-83
2021/10/20 07:27:12;;;;;;;;;;;;;;;19.76;65.36;100326.16;4962484;28;19929;-86
2021/10/20 07:29:40;;;;;;;;;;;;;;;19.73;65.42;100340.16;4961833;28;20367;-85
2021/10/20 07:32:05;;;;;;;;;;;;;;;20.28;64.18;100328.53;4961253;28;20065;-85
2021/10/20 07:34:30;;;;;;;;;;;;;;;19.63;66.23;100331.06;4961216;28;19953;-85
2021/10/20 07:36:56;;;;;;;;;;;;;;;20.16;64.74;100346.22;4960960;28;19918;-84
2021/10/20 07:39:22;;;;;;;;;;;;;;;19.64;66.11;100350.13;4961156;28;19925;-84
2021/10/20 07:41:48;;;;;;;;;;;;;;;19.89;65.22;100344.22;4961761;28;19918;-83
2021/10/20 07:44:14;;;;;;;;;;;;;;;20.21;64.20;100338.38;4958991;28;19918;-85
2021/10/20 07:46:40;;;;;;;;;;;;;;;19.93;65.61;100330.06;4974893;28;20006;-85
2021/10/20 07:49:05;;;;;;;;;;;;;;;19.57;66.83;100332.50;4974447;28;19925;-85
2021/10/20 07:51:31;;;;;;;;;;;;;;;19.94;65.18;100347.38;4957621;28;19922;-85
2021/10/20 07:53:56;;;;;;;;;;;;;;;19.53;66.27;100343.91;4957021;28;19969;-85
2021/10/20 07:56:21;;;;;;;;;;;;;;;19.74;65.84;100338.28;4956441;28;19949;-85
2021/10/20 07:58:48;;;;;;;;;;;;;;;19.92;65.23;100330.19;4949541;28;19941;-84
2021/10/20 08:01:14;;;;;;;;;;;;;;;19.75;65.62;100338.13;4941519;29;19965;-84
2021/10/20 08:03:39;;;;;;;;;;;;;;;20.25;64.47;100334.31;4941887;29;20287;-84
2021/10/20 08:06:04;;;;;;;;;;;;;;;20.09;65.42;100345.91;4941677;29;20021;-84
2021/10/20 08:08:29;;;;;;;;;;;;;;;20.80;62.63;100350.06;4941957;29;19966;-85
2021/10/20 08:10:59;;;;;;;;;;;;;;;20.61;63.43;100358.34;4942313;29;19962;-86
2021/10/20 08:13:24;;;;;;;;;;;;;;;21.25;62.02;100348.38;4939893;28;19919;-87
2021/10/20 08:15:49;;;;;;;;;;;;;;;20.33;63.86;100341.81;4942476;29;19941;-86
2021/10/20 08:18:16;;;;;;;;;;;;;;;20.66;63.25;100353.31;4941998;29;20264;-87
2021/10/20 08:20:41;;;;;;;;;;;;;;;21.41;61.20;100332.03;4942235;29;19926;-87
2021/10/20 08:23:07;;;;;;;;;;;;;;;21.39;61.63;100352.47;4942211;29;20407;-87
2021/10/20 08:25:35;;;;;;;;;;;;;;;21.67;60.90;100341.44;4941925;29;19930;-84
2021/10/20 08:28:01;;;;;;;;;;;;;;;21.62;60.89;100357.56;4941171;29;19970;-85
2021/10/20 08:30:26;;;;;;;;;;;;;;;21.01;61.56;100359.94;4958827;29;19919;-85
2021/10/20 08:32:53;;;;;;;;;;;;;;;20.83;62.69;100344.25;4941767;29;19914;-83
2021/10/20 08:35:18;;;;;;;;;;;;;;;20.37;63.21;100348.75;4941330;29;19922;-84
2021/10/20 08:37:45;;;;;;;;;;;;;;;21.18;61.60;100337.13;4958371;29;19946;-84
2021/10/20 08:40:12;;;;;;;;;;;;;;;21.30;61.21;100335.00;4941304;29;19919;-84
2021/10/20 08:42:37;;;;;;;;;;;;;;;21.00;61.93;100336.22;4941564;29;19930;-85
2021/10/20 08:45:03;;;;;;;;;;;;;;;21.37;60.65;100318.75;4941389;29;19925;-84
2021/10/20 08:47:29;;;;;;;;;;;;;;;21.53;60.53;100313.44;4958102;29;19923;-84
2021/10/20 08:49:54;;;;;;;;;;;;;;;20.86;62.93;100313.72;4958870;29;19995;-84
2021/10/20 08:52:20;;;;;;;;;;;;;;;21.46;60.93;100303.19;4941057;29;20395;-87
2021/10/20 08:54:45;;;;;;;;;;;;;;;22.11;58.90;100312.00;4940398;29;19923;-84
2021/10/20 08:57:10;;;;;;;;;;;;;;;21.42;61.16;100338.41;4940598;29;19922;-84
2021/10/20 08:59:35;;;;;;;;;;;;;;;20.93;63.11;100344.22;4940611;29;19919;-84
2021/10/20 09:02:01;;;;;;;;;;;;;;;;;;4940405;29;19919;-82
2021/10/20 09:04:28;;;;;;;;;;;;;;;21.28;61.46;100341.72;4940611;29;19925;-82
2021/10/20 09:06:54;;;;;;;;;;;;;;;21.66;60.88;100320.44;4939608;29;19934;-82
2021/10/20 09:09:19;;;;;;;;;;;;;;;21.13;62.03;100317.47;4939849;29;20237;-83
2021/10/20 09:11:46;;;;;;;;;;;;;;;21.16;62.32;100310.78;4957355;29;19919;-81
2021/10/20 09:14:12;;;;;;;;;;;;;;;21.25;61.99;100301.59;4956962;28;19922;-81
2021/10/20 09:16:38;;;;;;;;;;;;;;;21.67;60.43;100301.00;4939435;29;19973;-81
2021/10/20 09:19:14;;;;;;;;;;;;;;;21.24;61.77;100298.00;4956952;29;19922;-82
2021/10/20 09:21:51;;;;;;;;;;;;;;;21.58;60.87;100289.06;4957504;29;20296;-83
2021/10/20 09:24:16;;;;;;;;;;;;;;;21.81;59.70;100301.47;4954106;29;19949;-81
2021/10/20 09:26:42;;;;;;;;;;;;;;;21.36;61.23;100304.16;4941759;28;20029;-85
2021/10/20 09:29:21;;;;;;;;;;;;;;;21.29;61.62;100285.63;4958506;28;19922;-85
2021/10/20 09:31:47;;;;;;;;;;;;;;;21.02;62.44;100276.44;4975458;28;20403;-82
2021/10/20 09:34:12;;;;;;;;;;;;;;;21.62;60.77;100295.13;4958744;28;19918;-85
2021/10/20 09:36:37;;;;;;;;;;;;;;;21.55;60.47;100286.63;4958674;28;19925;-82
2021/10/20 09:39:02;;;;;;;;;;;;;;;22.10;58.98;100290.13;4975354;28;19920;-83
2021/10/20 09:41:28;;;;;;;;;;;;;;;22.00;59.22;100293.00;4958834;28;20005;-84
2021/10/20 09:43:55;;;;;;;;;;;;;;;22.07;59.08;100288.59;4958500;28;19914;-83
2021/10/20 09:46:44;;;;;;;;;;;;;;;22.62;57.00;100292.88;4957799;28;19925;-83
2021/10/20 09:49:14;;;;;;;;;;;;;;;21.28;61.29;100304.03;4945200;28;19929;-83
2021/10/20 09:51:39;;;;;;;;;;;;;;;21.53;59.95;100294.19;4957828;28;19918;-83
2021/10/20 09:54:18;;;;;;;;;;;;;;;21.80;59.55;100286.84;4957928;28;19918;-83
2021/10/20 09:56:50;;;;;;;;;;;;;;;21.70;60.27;100299.84;4975869;28;19997;-83
2021/10/20 09:59:16;;;;;;;;;;;;;;;22.13;59.06;100278.78;4975485;28;19914;-84
2021/10/20 10:01:44;;;;;;;;;;;;;;;22.11;58.81;100272.59;4958498;28;19968;-83
2021/10/20 10:04:10;;;;;;;;;;;;;;;21.81;59.67;100272.03;4975782;28;19973;-84
2021/10/20 10:06:38;;;;;;;;;;;;;;;21.98;59.19;100277.66;4958834;28;19918;-84
2021/10/20 10:09:03;;;;;;;;;;;;;;;22.35;56.76;100274.66;4975994;28;19918;-85
2021/10/20 10:11:29;;;;;;;;;;;;;;;21.45;60.06;100285.81;4975476;28;19921;-85
2021/10/20 10:13:56;;;;;;;;;;;;;;;22.34;57.68;100286.69;4957711;28;19933;-86
2021/10/20 10:16:27;;;;;;;;;;;;;;;21.24;61.18;100281.50;4958281;28;20231;-86
2021/10/20 10:18:57;;;;;;;;;;;;;;;22.00;58.51;100297.66;4958019;28;19985;-86
2021/10/20 10:21:33;;;;;;;;;;;;;;;22.04;58.58;100294.44;4973962;28;20395;-85
2021/10/20 10:24:00;;;;;;;;;;;;;;;21.85;58.95;100278.97;4971857;28;20310;-86
2021/10/20 10:26:26;;;;;;;;;;;;;;;21.66;59.40;100279.16;4954743;28;20459;-86
2021/10/20 10:29:05;;;;;;;;;;;;;;;22.15;57.57;100287.78;4954559;28;20203;-85
2021/10/20 10:31:35;;;;;;;;;;;;;;;21.55;60.82;100289.38;4954371;28;19926;-85
2021/10/20 10:34:00;;;;;;;;;;;;;;;21.58;60.33;100282.69;4954853;28;19926;-85
2021/10/20 10:36:26;;;;;;;;;;;;;;;22.33;57.91;100303.41;4954459;28;19918;-85
2021/10/20 10:38:51;;;;;;;;;;;;;;;22.30;57.72;100283.41;4957064;28;20392;-85
2021/10/20 10:41:16;;;;;;;;;;;;;;;21.75;59.05;100270.78;4957628;28;20057;-85
2021/10/20 10:44:00;;;;;;;;;;;;;;;21.91;58.30;100270.06;4957990;28;19969;-85
2021/10/20 10:46:28;;;;;;;;;;;;;;;22.51;56.75;100267.50;4957397;28;19918;-85
2021/10/20 10:48:53;;;;;;;;;;;;;;;22.36;58.02;100292.06;4957663;28;19923;-86
2021/10/20 10:51:20;;;;;;;;;;;;;;;22.42;58.00;100280.38;4974689;28;19929;-85
2021/10/20 10:53:53;;;;;;;;;;;;;;;21.69;57.66;100284.34;4957616;28;19922;-85
2021/10/20 10:56:18;;;;;;;;;;;;;;;22.10;58.42;100284.63;4957279;28;20005;-85
2021/10/20 10:59:02;;;;;;;;;;;;;;;21.56;59.38;100285.59;4957481;28;20005;-86
2021/10/20 11:01:44;;;;;;;;;;;;;;;21.94;58.55;100269.72;4974528;28;19934;-86
2021/10/20 11:04:16;;;;;;;;;;;;;;;22.43;56.56;100277.44;4957294;28;19928;-85
2021/10/20 11:06:41;;;;;;;;;;;;;;;22.51;56.42;100273.91;4957384;28;19933;-87
2021/10/20 11:09:07;;;;;;;;;;;;;;;21.53;58.31;100280.41;4957200;28;19918;-87
2021/10/20 11:11:32;;;;;;;;;;;;;;;21.68;58.99;100277.97;4957439;28;20029;-85
2021/10/20 11:14:00;;;;;;;;;;;;;;;21.66;58.72;100271.75;4957160;28;19985;-87
2021/10/20 11:16:25;;;;;;;;;;;;;;;22.50;56.58;100272.16;4957789;28;19929;-86
2021/10/20 11:18:53;;;;;;;;;;;;;;;21.77;59.19;100266.00;4958663;28;19918;-86
2021/10/20 11:21:20;;;;;;;;;;;;;;;23.43;53.64;100267.63;4951928;28;19922;-87
2021/10/20 11:23:45;;;;;;;;;;;;;;;22.73;55.30;100271.56;4956702;28;19968;-86
2021/10/20 11:26:10;;;;;;;;;;;;;;;22.67;55.98;100259.31;4974383;28;19965;-86
2021/10/20 11:28:36;;;;;;;;;;;;;;;22.45;56.07;100271.78;4957101;28;20384;-86
2021/10/20 11:31:09;;;;;;;;;;;;;;;22.57;55.78;100264.97;4956877;28;20376;-85
2021/10/20 11:33:34;;;;;;;;;;;;;;;22.73;54.90;100277.94;4956924;28;20004;-86
2021/10/20 11:36:00;;;;;;;;;;;;;;;22.12;56.38;100264.16;4956872;28;19986;-86
2021/10/20 11:38:31;;;;;;;;;;;;;;;23.05;53.80;100265.28;4957102;28;19923;-87
2021/10/20 11:40:57;;;;;;;;;;;;;;;22.08;56.61;100254.50;4957072;28;19914;-87
2021/10/20 11:43:25;;;;;;;;;;;;;;;22.12;56.79;100264.16;4956949;28;20076;-85
2021/10/20 11:45:50;;;;;;;;;;;;;;;22.28;56.17;100252.38;4956812;28;19918;-85
2021/10/20 11:48:18;;;;;;;;;;;;;;;21.41;58.60;100270.66;4956758;28;19927;-86
2021/10/20 11:50:47;;;;;;;;;;;;;;;22.19;55.89;100282.81;4956404;28;19918;-86
2021/10/20 11:53:13;;;;;;;;;;;;;;;22.18;56.92;100261.78;4973868;28;20056;-85
2021/10/20 11:55:43;;;;;;;;;;;;;;;22.22;56.22;100255.81;4956848;28;20380;-86
2021/10/20 11:58:15;;;;;;;;;;;;;;;22.60;55.68;100252.72;4956635;28;19922;-86
2021/10/20 12:00:40;;;;;;;;;;;;;;;22.62;54.85;100239.66;4956760;28;19925;-86
2021/10/20 12:03:07;;;;;;;;;;;;;;;22.67;55.08;100242.75;4956776;28;19930;-86
2021/10/20 12:05:33;;;;;;;;;;;;;;;21.83;57.22;100236.97;4973949;28;20409;-86
2021/10/20 12:07:59;;;;;;;;;;;;;;;22.30;56.36;100232.94;4957093;28;19922;-86
2021/10/20 12:10:25;;;;;;;;;;;;;;;22.15;56.77;100227.16;4956982;28;19925;-86
2021/10/20 12:12:50;;;;;;;;;;;;;;;22.33;55.63;100229.00;4956837;28;19922;-86
2021/10/20 12:15:20;;;;;;;;;;;;;;;22.71;53.90;100240.56;4956269;28;20430;-86
2021/10/20 12:17:46;;;;;;;;;;;;;;;22.46;55.01;100230.28;4956826;28;20256;-86
2021/10/20 12:20:13;;;;;;;;;;;;;;;23.47;52.09;100209.13;4956639;28;20395;-86
2021/10/20 12:22:40;;;;;;;;;;;;;;;23.77;51.23;100192.88;4956462;28;19918;-86
2021/10/20 12:25:06;;;;;;;;;;;;;;;22.82;53.34;100199.72;4956548;28;19922;-87
2021/10/20 12:27:31;;;;;;;;;;;;;;;22.71;53.52;100197.28;4956623;28;19957;-86
2021/10/20 12:29:59;;;;;;;;;;;;;;;23.34;51.57;100200.50;4956809;28;20032;-86
2021/10/20 12:32:24;;;;;;;;;;;;;;;22.59;52.92;100188.47;4956890;28;20001;-86